KFMH/FMH METAR and TAF weather

Enter ICAO airport designator
Station Type Date Time Source
KFMH METAR 2020/10/20 17:55 UTC NOAA

KFMH 201755Z 17007KT 10SM BKN006 OVC013 17/16 A3024


Station Type Date Time Source
KFMH Decoded METAR 2020/10/20 17:55 UTC NOAA

Otis Air National Guard Base, MA, United States (KFMH) 41-39N 070-31W
Oct 20, 2020 - 01:55 PM EDT / 2020.10.20 1755 UTC
Wind: from the S (170 degrees) at 8 MPH (7 KT):0
Visibility: 10 mile(s):0
Sky conditions: overcast
Temperature: 62 F (17 C)
Dew Point: 60 F (16 C)
Relative Humidity: 93%
Pressure (altimeter): 30.24 in. Hg (1024 hPa)
ob: KFMH 201755Z 17007KT 10SM BKN006 OVC013 17/16 A3024
cycle: 18

Station Type Date Time Source
KFMH TAF 2020/10/20 18:42 UTC NOAA

TAF KFMH 201741Z 2018/2118 17007KT P6SM VCSH BKN006 OVC018
FM210200 00000KT 3/4SM BR OVC008
FM210300 00000KT 1/4SM FG OVC008
FM210400 00000KT 3/4SM BR OVC008

Example: see airport list